sensor_id;sensor_type;location;lat;lon;timestamp;pressure;altitude;pressure_sealevel;temperature;humidity
16738;BME280;17906;47.684;10.806;2023-02-04T00:02:24;94236.22;;;0.08;nan
16738;BME280;17906;47.684;10.806;2023-02-04T00:04:50;94247.59;;;0.10;nan
16738;BME280;17906;47.684;10.806;2023-02-04T00:07:17;94235.06;;;0.02;nan
16738;BME280;17906;47.684;10.806;2023-02-04T00:09:44;94245.72;;;0.02;nan
16738;BME280;17906;47.684;10.806;2023-02-04T00:12:11;94242.88;;;0.03;nan
16738;BME280;17906;47.684;10.806;2023-02-04T00:14:38;94243.94;;;0.11;nan
16738;BME280;17906;47.684;10.806;2023-02-04T00:17:04;94253.75;;;0.10;nan
16738;BME280;17906;47.684;10.806;2023-02-04T00:19:33;94249.22;;;0.02;nan
16738;BME280;17906;47.684;10.806;2023-02-04T00:22:00;94258.56;;;0.07;nan
16738;BME280;17906;47.684;10.806;2023-02-04T00:24:28;94262.88;;;-0.01;nan
16738;BME280;17906;47.684;10.806;2023-02-04T00:26:55;94260.03;;;0.01;nan
16738;BME280;17906;47.684;10.806;2023-02-04T00:29:22;94262.38;;;0.04;nan
16738;BME280;17906;47.684;10.806;2023-02-04T00:31:49;94253.88;;;0.00;nan
16738;BME280;17906;47.684;10.806;2023-02-04T00:34:15;94246.88;;;-0.01;nan
16738;BME280;17906;47.684;10.806;2023-02-04T00:36:44;94248.34;;;-0.06;nan
16738;BME280;17906;47.684;10.806;2023-02-04T00:39:10;94253.88;;;0.00;nan
16738;BME280;17906;47.684;10.806;2023-02-04T00:41:37;94259.50;;;-0.03;nan
16738;BME280;17906;47.684;10.806;2023-02-04T00:44:04;94256.50;;;-0.08;nan
16738;BME280;17906;47.684;10.806;2023-02-04T00:46:30;94252.00;;;-0.07;nan
16738;BME280;17906;47.684;10.806;2023-02-04T00:48:57;94269.19;;;-0.02;nan
16738;BME280;17906;47.684;10.806;2023-02-04T00:51:24;94267.81;;;-0.06;nan
16738;BME280;17906;47.684;10.806;2023-02-04T00:53:51;94264.00;;;-0.03;nan
16738;BME280;17906;47.684;10.806;2023-02-04T00:56:18;94266.16;;;-0.07;nan
16738;BME280;17906;47.684;10.806;2023-02-04T00:58:45;94264.66;;;-0.09;nan
16738;BME280;17906;47.684;10.806;2023-02-04T01:01:11;94275.66;;;-0.04;nan
16738;BME280;17906;47.684;10.806;2023-02-04T01:03:38;94272.16;;;-0.05;nan
16738;BME280;17906;47.684;10.806;2023-02-04T01:06:04;94288.31;;;-0.06;nan
16738;BME280;17906;47.684;10.806;2023-02-04T01:08:31;94299.47;;;-0.03;nan
16738;BME280;17906;47.684;10.806;2023-02-04T01:10:59;94301.19;;;-0.02;nan
16738;BME280;17906;47.684;10.806;2023-02-04T01:13:26;94317.13;;;-0.10;nan
16738;BME280;17906;47.684;10.806;2023-02-04T01:15:52;94311.78;;;-0.10;nan
16738;BME280;17906;47.684;10.806;2023-02-04T01:18:19;94296.97;;;-0.12;nan
16738;BME280;17906;47.684;10.806;2023-02-04T01:20:45;94293.25;;;-0.19;nan
16738;BME280;17906;47.684;10.806;2023-02-04T01:23:12;94292.03;;;-0.25;nan
16738;BME280;17906;47.684;10.806;2023-02-04T01:25:38;94307.34;;;-0.27;nan
16738;BME280;17906;47.684;10.806;2023-02-04T01:28:06;94329.13;;;-0.32;nan
16738;BME280;17906;47.684;10.806;2023-02-04T01:30:33;94334.63;;;-0.33;nan
16738;BME280;17906;47.684;10.806;2023-02-04T01:32:59;94325.47;;;-0.31;nan
16738;BME280;17906;47.684;10.806;2023-02-04T01:35:26;94314.31;;;-0.34;nan
16738;BME280;17906;47.684;10.806;2023-02-04T01:37:53;94320.22;;;-0.40;nan
16738;BME280;17906;47.684;10.806;2023-02-04T01:40:19;94316.97;;;-0.52;nan
16738;BME280;17906;47.684;10.806;2023-02-04T01:42:46;94313.50;;;-0.52;nan
16738;BME280;17906;47.684;10.806;2023-02-04T01:45:14;94314.16;;;-0.50;nan
16738;BME280;17906;47.684;10.806;2023-02-04T01:47:41;94318.19;;;-0.46;nan
16738;BME280;17906;47.684;10.806;2023-02-04T01:50:10;94317.06;;;-0.44;nan
16738;BME280;17906;47.684;10.806;2023-02-04T01:52:38;94317.22;;;-0.45;nan
16738;BME280;17906;47.684;10.806;2023-02-04T01:55:12;94320.16;;;-0.48;nan
16738;BME280;17906;47.684;10.806;2023-02-04T01:57:39;94320.84;;;-0.46;nan
16738;BME280;17906;47.684;10.806;2023-02-04T02:00:10;94312.56;;;-0.43;nan
16738;BME280;17906;47.684;10.806;2023-02-04T02:02:44;94314.47;;;-0.53;nan
16738;BME280;17906;47.684;10.806;2023-02-04T02:05:13;94316.97;;;-0.52;nan
16738;BME280;17906;47.684;10.806;2023-02-04T02:07:40;94316.97;;;-0.52;nan
16738;BME280;17906;47.684;10.806;2023-02-04T02:10:10;94318.66;;;-0.51;nan
16738;BME280;17906;47.684;10.806;2023-02-04T02:12:37;94308.84;;;-0.50;nan
16738;BME280;17906;47.684;10.806;2023-02-04T02:15:05;94315.66;;;-0.48;nan
16738;BME280;17906;47.684;10.806;2023-02-04T02:17:32;94317.91;;;-0.61;nan
16738;BME280;17906;47.684;10.806;2023-02-04T02:20:00;94318.22;;;-0.64;nan
16738;BME280;17906;47.684;10.806;2023-02-04T02:22:30;94307.88;;;-0.67;nan
16738;BME280;17906;47.684;10.806;2023-02-04T02:25:00;94318.06;;;-0.63;nan
16738;BME280;17906;47.684;10.806;2023-02-04T02:27:26;94314.56;;;-0.63;nan
16738;BME280;17906;47.684;10.806;2023-02-04T02:29:53;94321.09;;;-0.58;nan
16738;BME280;17906;47.684;10.806;2023-02-04T02:32:20;94324.75;;;-0.59;nan
16738;BME280;17906;47.684;10.806;2023-02-04T02:34:46;94321.78;;;-0.56;nan
16738;BME280;17906;47.684;10.806;2023-02-04T02:37:13;94317.31;;;-0.55;nan
16738;BME280;17906;47.684;10.806;2023-02-04T02:39:42;94328.63;;;-0.53;nan
16738;BME280;17906;47.684;10.806;2023-02-04T02:42:14;94333.97;;;-0.53;nan
16738;BME280;17906;47.684;10.806;2023-02-04T02:44:43;94335.63;;;-0.52;nan
16738;BME280;17906;47.684;10.806;2023-02-04T02:47:12;94328.47;;;-0.51;nan
16738;BME280;17906;47.684;10.806;2023-02-04T02:49:40;94331.97;;;-0.51;nan
16738;BME280;17906;47.684;10.806;2023-02-04T02:52:10;94348.31;;;-0.46;nan
16738;BME280;17906;47.684;10.806;2023-02-04T02:54:37;94339.19;;;-0.43;nan
16738;BME280;17906;47.684;10.806;2023-02-04T02:57:10;94331.56;;;-0.38;nan
16738;BME280;17906;47.684;10.806;2023-02-04T02:59:38;94327.22;;;-0.39;nan
16738;BME280;17906;47.684;10.806;2023-02-04T03:02:05;94327.91;;;-0.37;nan
16738;BME280;17906;47.684;10.806;2023-02-04T03:04:36;94334.63;;;-0.33;nan
16738;BME280;17906;47.684;10.806;2023-02-04T03:07:03;94338.13;;;-0.33;nan
16738;BME280;17906;47.684;10.806;2023-02-04T03:09:30;94343.59;;;-0.34;nan
16738;BME280;17906;47.684;10.806;2023-02-04T03:11:58;94351.88;;;-0.37;nan
16738;BME280;17906;47.684;10.806;2023-02-04T03:14:26;94364.75;;;-0.33;nan
16738;BME280;17906;47.684;10.806;2023-02-04T03:16:54;94371.38;;;-0.37;nan
16738;BME280;17906;47.684;10.806;2023-02-04T03:19:21;94368.94;;;-0.30;nan
16738;BME280;17906;47.684;10.806;2023-02-04T03:21:48;94384.59;;;-0.27;nan
16738;BME280;17906;47.684;10.806;2023-02-04T03:24:15;94386.66;;;-0.21;nan
16738;BME280;17906;47.684;10.806;2023-02-04T03:26:42;94383.91;;;-0.29;nan
16738;BME280;17906;47.684;10.806;2023-02-04T03:29:09;94393.44;;;-0.27;nan
16738;BME280;17906;47.684;10.806;2023-02-04T03:31:36;94400.41;;;-0.26;nan
16738;BME280;17906;47.684;10.806;2023-02-04T03:34:04;94409.88;;;-0.31;nan
16738;BME280;17906;47.684;10.806;2023-02-04T03:36:31;94405.38;;;-0.31;nan
16738;BME280;17906;47.684;10.806;2023-02-04T03:38:57;94407.38;;;-0.33;nan
16738;BME280;17906;47.684;10.806;2023-02-04T03:41:24;94400.66;;;-0.37;nan
16738;BME280;17906;47.684;10.806;2023-02-04T03:43:50;94412.03;;;-0.35;nan
16738;BME280;17906;47.684;10.806;2023-02-04T03:46:17;94417.47;;;-0.36;nan
16738;BME280;17906;47.684;10.806;2023-02-04T03:48:44;94425.19;;;-0.33;nan
16738;BME280;17906;47.684;10.806;2023-02-04T03:51:11;94421.53;;;-0.32;nan
16738;BME280;17906;47.684;10.806;2023-02-04T03:53:38;94423.34;;;-0.33;nan
16738;BME280;17906;47.684;10.806;2023-02-04T03:56:05;94421.44;;;-0.22;nan
16738;BME280;17906;47.684;10.806;2023-02-04T03:58:32;94434.31;;;-0.18;nan
16738;BME280;17906;47.684;10.806;2023-02-04T04:00:58;94434.63;;;-0.21;nan
16738;BME280;17906;47.684;10.806;2023-02-04T04:03:25;94439.78;;;-0.19;nan
16738;BME280;17906;47.684;10.806;2023-02-04T04:05:51;94434.22;;;-0.26;nan
16738;BME280;17906;47.684;10.806;2023-02-04T04:08:19;94446.44;;;-0.23;nan
16738;BME280;17906;47.684;10.806;2023-02-04T04:10:46;94448.69;;;-0.11;nan
16738;BME280;17906;47.684;10.806;2023-02-04T04:13:12;94449.59;;;-0.20;nan
16738;BME280;17906;47.684;10.806;2023-02-04T04:15:39;94457.91;;;-0.23;nan
16738;BME280;17906;47.684;10.806;2023-02-04T04:18:05;94463.78;;;-0.19;nan
16738;BME280;17906;47.684;10.806;2023-02-04T04:20:32;94456.38;;;-0.26;nan
16738;BME280;17906;47.684;10.806;2023-02-04T04:22:58;94468.03;;;-0.27;nan
16738;BME280;17906;47.684;10.806;2023-02-04T04:25:26;94461.19;;;-0.29;nan
16738;BME280;17906;47.684;10.806;2023-02-04T04:27:53;94465.97;;;-0.33;nan
16738;BME280;17906;47.684;10.806;2023-02-04T04:30:19;94469.53;;;-0.24;nan
16738;BME280;17906;47.684;10.806;2023-02-04T04:32:46;94468.09;;;-0.36;nan
16738;BME280;17906;47.684;10.806;2023-02-04T04:35:13;94471.59;;;-0.36;nan
16738;BME280;17906;47.684;10.806;2023-02-04T04:37:39;94478.22;;;-0.40;nan
16738;BME280;17906;47.684;10.806;2023-02-04T04:40:07;94484.06;;;-0.36;nan
16738;BME280;17906;47.684;10.806;2023-02-04T04:42:35;94488.13;;;-0.32;nan
16738;BME280;17906;47.684;10.806;2023-02-04T04:45:04;94479.31;;;-0.33;nan
16738;BME280;17906;47.684;10.806;2023-02-04T04:47:31;94478.38;;;-0.41;nan
16738;BME280;17906;47.684;10.806;2023-02-04T04:49:57;94469.41;;;-0.40;nan
16738;BME280;17906;47.684;10.806;2023-02-04T04:52:24;94472.97;;;-0.32;nan
16738;BME280;17906;47.684;10.806;2023-02-04T04:54:50;94482.25;;;-0.36;nan
16738;BME280;17906;47.684;10.806;2023-02-04T04:57:17;94474.56;;;-0.39;nan
16738;BME280;17906;47.684;10.806;2023-02-04T04:59:45;94482.19;;;-0.44;nan
16738;BME280;17906;47.684;10.806;2023-02-04T05:02:11;94482.34;;;-0.45;nan
16738;BME280;17906;47.684;10.806;2023-02-04T05:04:38;94484.00;;;-0.44;nan
16738;BME280;17906;47.684;10.806;2023-02-04T05:07:04;94487.38;;;-0.42;nan
16738;BME280;17906;47.684;10.806;2023-02-04T05:09:31;94497.47;;;-0.46;nan
16738;BME280;17906;47.684;10.806;2023-02-04T05:11:57;94491.84;;;-0.43;nan
16738;BME280;17906;47.684;10.806;2023-02-04T05:14:24;94486.06;;;-0.38;nan
16738;BME280;17906;47.684;10.806;2023-02-04T05:16:52;94502.44;;;-0.33;nan
16738;BME280;17906;47.684;10.806;2023-02-04T05:19:18;94499.69;;;-0.41;nan
16738;BME280;17906;47.684;10.806;2023-02-04T05:21:45;94497.63;;;-0.47;nan
16738;BME280;17906;47.684;10.806;2023-02-04T05:24:12;94512.91;;;-0.49;nan
16738;BME280;17906;47.684;10.806;2023-02-04T05:26:38;94507.00;;;-0.43;nan
16738;BME280;17906;47.684;10.806;2023-02-04T05:29:05;94512.38;;;-0.53;nan
16738;BME280;17906;47.684;10.806;2023-02-04T05:31:31;94516.88;;;-0.53;nan
16738;BME280;17906;47.684;10.806;2023-02-04T05:33:59;94523.88;;;-0.52;nan
16738;BME280;17906;47.684;10.806;2023-02-04T05:36:26;94524.56;;;-0.50;nan
16738;BME280;17906;47.684;10.806;2023-02-04T05:38:53;94518.44;;;-0.61;nan
16738;BME280;17906;47.684;10.806;2023-02-04T05:41:19;94514.56;;;-0.66;nan
16738;BME280;17906;47.684;10.806;2023-02-04T05:43:46;94507.94;;;-0.62;nan
16738;BME280;17906;47.684;10.806;2023-02-04T05:46:12;94517.09;;;-0.65;nan
16738;BME280;17906;47.684;10.806;2023-02-04T05:48:39;94513.97;;;-0.60;nan
16738;BME280;17906;47.684;10.806;2023-02-04T05:51:07;94509.09;;;-0.65;nan
16738;BME280;17906;47.684;10.806;2023-02-04T05:53:33;94511.75;;;-0.65;nan
16738;BME280;17906;47.684;10.806;2023-02-04T05:56:00;94513.97;;;-0.60;nan
16738;BME280;17906;47.684;10.806;2023-02-04T05:58:27;94523.00;;;-0.71;nan
16738;BME280;17906;47.684;10.806;2023-02-04T06:00:57;94514.84;;;-0.69;nan
16738;BME280;17906;47.684;10.806;2023-02-04T06:03:24;94522.56;;;-0.66;nan
16738;BME280;17906;47.684;10.806;2023-02-04T06:05:50;94521.72;;;-0.67;nan
16738;BME280;17906;47.684;10.806;2023-02-04T06:08:19;94529.00;;;-0.69;nan
16738;BME280;17906;47.684;10.806;2023-02-04T06:10:45;94532.94;;;-0.73;nan
16738;BME280;17906;47.684;10.806;2023-02-04T06:13:12;94538.59;;;-0.76;nan
16738;BME280;17906;47.684;10.806;2023-02-04T06:15:39;94549.75;;;-0.72;nan
16738;BME280;17906;47.684;10.806;2023-02-04T06:18:05;94541.47;;;-0.69;nan
16738;BME280;17906;47.684;10.806;2023-02-04T06:20:32;94552.13;;;-0.69;nan
16738;BME280;17906;47.684;10.806;2023-02-04T06:22:58;94555.63;;;-0.69;nan
16738;BME280;17906;47.684;10.806;2023-02-04T06:25:26;94555.34;;;-0.66;nan
16738;BME280;17906;47.684;10.806;2023-02-04T06:27:53;94543.44;;;-0.71;nan
16738;BME280;17906;47.684;10.806;2023-02-04T06:30:20;94552.28;;;-0.71;nan
16738;BME280;17906;47.684;10.806;2023-02-04T06:32:46;94554.88;;;-0.61;nan
16738;BME280;17906;47.684;10.806;2023-02-04T06:35:13;94549.03;;;-0.65;nan
16738;BME280;17906;47.684;10.806;2023-02-04T06:37:41;94546.91;;;-0.61;nan
16738;BME280;17906;47.684;10.806;2023-02-04T06:40:08;94549.47;;;-0.69;nan
16738;BME280;17906;47.684;10.806;2023-02-04T06:42:36;94555.63;;;-0.69;nan
16738;BME280;17906;47.684;10.806;2023-02-04T06:45:04;94552.38;;;-0.63;nan
16738;BME280;17906;47.684;10.806;2023-02-04T06:47:30;94556.03;;;-0.64;nan
16738;BME280;17906;47.684;10.806;2023-02-04T06:49:57;94553.94;;;-0.70;nan
16738;BME280;17906;47.684;10.806;2023-02-04T06:52:23;94554.06;;;-0.62;nan
16738;BME280;17906;47.684;10.806;2023-02-04T06:54:50;94549.59;;;-0.71;nan
16738;BME280;17906;47.684;10.806;2023-02-04T06:57:16;94549.06;;;-0.74;nan
16738;BME280;17906;47.684;10.806;2023-02-04T06:59:44;94554.41;;;-0.74;nan
16738;BME280;17906;47.684;10.806;2023-02-04T07:02:12;94557.91;;;-0.74;nan
16738;BME280;17906;47.684;10.806;2023-02-04T07:04:39;94568.97;;;-0.78;nan
16738;BME280;17906;47.684;10.806;2023-02-04T07:07:08;94569.91;;;-0.70;nan
16738;BME280;17906;47.684;10.806;2023-02-04T07:09:35;94571.59;;;-0.69;nan
16738;BME280;17906;47.684;10.806;2023-02-04T07:12:01;94577.63;;;-0.67;nan
16738;BME280;17906;47.684;10.806;2023-02-04T07:14:28;94588.41;;;-0.68;nan
16738;BME280;17906;47.684;10.806;2023-02-04T07:16:56;94579.38;;;-0.58;nan
16738;BME280;17906;47.684;10.806;2023-02-04T07:19:23;94577.50;;;-0.47;nan
16738;BME280;17906;47.684;10.806;2023-02-04T07:21:49;94578.81;;;-0.51;nan
16738;BME280;17906;47.684;10.806;2023-02-04T07:24:18;94583.25;;;-0.42;nan
16738;BME280;17906;47.684;10.806;2023-02-04T07:26:45;94593.03;;;-0.33;nan
16738;BME280;17906;47.684;10.806;2023-02-04T07:29:11;94602.00;;;-0.34;nan
16738;BME280;17906;47.684;10.806;2023-02-04T07:31:38;94608.38;;;-0.27;nan
16738;BME280;17906;47.684;10.806;2023-02-04T07:34:06;94610.63;;;-0.22;nan
16738;BME280;17906;47.684;10.806;2023-02-04T07:36:32;94616.19;;;-0.16;nan
16738;BME280;17906;47.684;10.806;2023-02-04T07:38:59;94624.84;;;-0.14;nan
16738;BME280;17906;47.684;10.806;2023-02-04T07:41:25;94626.09;;;-0.08;nan
16738;BME280;17906;47.684;10.806;2023-02-04T07:43:52;94629.84;;;-0.01;nan
16738;BME280;17906;47.684;10.806;2023-02-04T07:46:19;94634.81;;;0.12;nan
16738;BME280;17906;47.684;10.806;2023-02-04T07:48:45;94640.16;;;0.12;nan
16738;BME280;17906;47.684;10.806;2023-02-04T07:51:13;94661.00;;;-0.02;nan
16738;BME280;17906;47.684;10.806;2023-02-04T07:53:40;94668.34;;;-0.13;nan
16738;BME280;17906;47.684;10.806;2023-02-04T07:56:06;94665.13;;;-0.17;nan
16738;BME280;17906;47.684;10.806;2023-02-04T07:58:33;94670.81;;;-0.30;nan
16738;BME280;17906;47.684;10.806;2023-02-04T08:00:59;94676.91;;;-0.47;nan
16738;BME280;17906;47.684;10.806;2023-02-04T08:03:26;94671.03;;;-0.50;nan
16738;BME280;17906;47.684;10.806;2023-02-04T08:05:53;94666.81;;;-0.43;nan
16738;BME280;17906;47.684;10.806;2023-02-04T08:08:21;94670.91;;;-0.59;nan
16738;BME280;17906;47.684;10.806;2023-02-04T08:10:48;94659.47;;;-0.69;nan
16738;BME280;17906;47.684;10.806;2023-02-04T08:13:14;94660.75;;;-0.73;nan
16738;BME280;17906;47.684;10.806;2023-02-04T08:15:41;94672.53;;;-0.75;nan
16738;BME280;17906;47.684;10.806;2023-02-04T08:18:08;94665.38;;;-0.75;nan
16738;BME280;17906;47.684;10.806;2023-02-04T08:20:34;94661.59;;;-0.72;nan
16738;BME280;17906;47.684;10.806;2023-02-04T08:23:01;94659.75;;;-0.72;nan
16738;BME280;17906;47.684;10.806;2023-02-04T08:25:29;94661.03;;;-0.76;nan
16738;BME280;17906;47.684;10.806;2023-02-04T08:27:55;94664.94;;;-0.70;nan
16738;BME280;17906;47.684;10.806;2023-02-04T08:30:22;94659.56;;;-0.61;nan
16738;BME280;17906;47.684;10.806;2023-02-04T08:32:48;94668.16;;;-0.67;nan
16738;BME280;17906;47.684;10.806;2023-02-04T08:35:15;94676.69;;;-0.63;nan
16738;BME280;17906;47.684;10.806;2023-02-04T08:37:42;94672.75;;;-0.59;nan
16738;BME280;17906;47.684;10.806;2023-02-04T08:40:09;94678.91;;;-0.59;nan
16738;BME280;17906;47.684;10.806;2023-02-04T08:42:38;94674.38;;;-0.48;nan
16738;BME280;17906;47.684;10.806;2023-02-04T08:45:04;94685.91;;;-0.58;nan
16738;BME280;17906;47.684;10.806;2023-02-04T08:47:31;94690.00;;;-0.63;nan
16738;BME280;17906;47.684;10.806;2023-02-04T08:49:58;94693.53;;;-0.72;nan
16738;BME280;17906;47.684;10.806;2023-02-04T08:52:24;94687.38;;;-0.73;nan
16738;BME280;17906;47.684;10.806;2023-02-04T08:54:51;94689.56;;;-0.59;nan
16738;BME280;17906;47.684;10.806;2023-02-04T08:57:17;94685.50;;;-0.53;nan
16738;BME280;17906;47.684;10.806;2023-02-04T08:59:47;94694.72;;;-0.47;nan
16738;BME280;17906;47.684;10.806;2023-02-04T09:02:13;94697.53;;;-0.49;nan
16738;BME280;17906;47.684;10.806;2023-02-04T09:04:40;94699.88;;;-0.46;nan
16738;BME280;17906;47.684;10.806;2023-02-04T09:07:06;94705.78;;;-0.42;nan
16738;BME280;17906;47.684;10.806;2023-02-04T09:09:33;94706.16;;;-0.37;nan
16738;BME280;17906;47.684;10.806;2023-02-04T09:11:59;94709.34;;;-0.24;nan
16738;BME280;17906;47.684;10.806;2023-02-04T09:14:26;94703.88;;;-0.22;nan
16738;BME280;17906;47.684;10.806;2023-02-04T09:16:54;94709.59;;;-0.17;nan
16738;BME280;17906;47.684;10.806;2023-02-04T09:19:21;94704.00;;;-0.24;nan
16738;BME280;17906;47.684;10.806;2023-02-04T09:21:49;94712.19;;;-0.35;nan
16738;BME280;17906;47.684;10.806;2023-02-04T09:24:16;94708.75;;;-0.45;nan
16738;BME280;17906;47.684;10.806;2023-02-04T09:26:43;94703.53;;;-0.47;nan
16738;BME280;17906;47.684;10.806;2023-02-04T09:29:09;94694.53;;;-0.36;nan
16738;BME280;17906;47.684;10.806;2023-02-04T09:31:36;94691.41;;;-0.22;nan
16738;BME280;17906;47.684;10.806;2023-02-04T09:34:05;94696.44;;;-0.19;nan
16738;BME280;17906;47.684;10.806;2023-02-04T09:36:31;94692.50;;;-0.24;nan
16738;BME280;17906;47.684;10.806;2023-02-04T09:39:03;94697.00;;;-0.25;nan
16738;BME280;17906;47.684;10.806;2023-02-04T09:41:30;94695.63;;;-0.29;nan
16738;BME280;17906;47.684;10.806;2023-02-04T09:43:57;94693.66;;;-0.27;nan
16738;BME280;17906;47.684;10.806;2023-02-04T09:46:25;94699.00;;;-0.37;nan
16738;BME280;17906;47.684;10.806;2023-02-04T09:48:54;94695.66;;;-0.39;nan
16738;BME280;17906;47.684;10.806;2023-02-04T09:51:25;94695.28;;;-0.44;nan
16738;BME280;17906;47.684;10.806;2023-02-04T09:53:54;94695.81;;;-0.40;nan
16738;BME280;17906;47.684;10.806;2023-02-04T09:56:25;94701.44;;;-0.43;nan
16738;BME280;17906;47.684;10.806;2023-02-04T09:58:51;94703.66;;;-0.39;nan
16738;BME280;17906;47.684;10.806;2023-02-04T10:01:19;94705.44;;;-0.30;nan
16738;BME280;17906;47.684;10.806;2023-02-04T10:03:47;94698.28;;;-0.29;nan
16738;BME280;17906;47.684;10.806;2023-02-04T10:06:16;94700.66;;;-0.26;nan
16738;BME280;17906;47.684;10.806;2023-02-04T10:08:45;94702.06;;;-0.22;nan
16738;BME280;17906;47.684;10.806;2023-02-04T10:11:13;94698.84;;;-0.26;nan
16738;BME280;17906;47.684;10.806;2023-02-04T10:13:43;94702.28;;;-0.15;nan
16738;BME280;17906;47.684;10.806;2023-02-04T10:16:13;94691.75;;;-0.07;nan
16738;BME280;17906;47.684;10.806;2023-02-04T10:18:41;94694.22;;;0.04;nan
16738;BME280;17906;47.684;10.806;2023-02-04T10:21:14;94696.78;;;0.23;nan
16738;BME280;17906;47.684;10.806;2023-02-04T10:23:44;94702.81;;;0.43;nan
16738;BME280;17906;47.684;10.806;2023-02-04T10:26:12;94699.16;;;0.44;nan
16738;BME280;17906;47.684;10.806;2023-02-04T10:28:40;94700.09;;;0.53;nan
16738;BME280;17906;47.684;10.806;2023-02-04T10:31:27;94699.88;;;0.64;nan
16738;BME280;17906;47.684;10.806;2023-02-04T10:34:11;94701.59;;;0.73;nan
16738;BME280;17906;47.684;10.806;2023-02-04T10:36:39;94703.75;;;0.70;nan
16738;BME280;17906;47.684;10.806;2023-02-04T10:39:12;94709.59;;;0.73;nan
16738;BME280;17906;47.684;10.806;2023-02-04T10:41:44;94699.50;;;0.77;nan
16738;BME280;17906;47.684;10.806;2023-02-04T10:44:14;94691.75;;;0.74;nan
16738;BME280;17906;47.684;10.806;2023-02-04T10:46:41;94699.09;;;0.72;nan
16738;BME280;17906;47.684;10.806;2023-02-04T10:49:16;94697.94;;;0.56;nan
16738;BME280;17906;47.684;10.806;2023-02-04T10:51:44;94703.97;;;0.58;nan
16738;BME280;17906;47.684;10.806;2023-02-04T10:54:13;94691.56;;;0.67;nan
16738;BME280;17906;47.684;10.806;2023-02-04T10:56:56;94701.94;;;0.52;nan
16738;BME280;17906;47.684;10.806;2023-02-04T10:59:23;94702.88;;;0.51;nan
16738;BME280;17906;47.684;10.806;2023-02-04T11:01:53;94699.00;;;0.46;nan
16738;BME280;17906;47.684;10.806;2023-02-04T11:04:20;94703.44;;;0.55;nan
16738;BME280;17906;47.684;10.806;2023-02-04T11:06:46;94698.31;;;0.61;nan
16738;BME280;17906;47.684;10.806;2023-02-04T11:09:14;94699.78;;;0.74;nan
16738;BME280;17906;47.684;10.806;2023-02-04T11:11:45;94697.25;;;0.72;nan
16738;BME280;17906;47.684;10.806;2023-02-04T11:14:23;94694.50;;;0.82;nan
16738;BME280;17906;47.684;10.806;2023-02-04T11:16:50;94698.50;;;0.78;nan
16738;BME280;17906;47.684;10.806;2023-02-04T11:19:30;94682.91;;;0.91;nan
16738;BME280;17906;47.684;10.806;2023-02-04T11:22:05;94684.16;;;0.97;nan
16738;BME280;17906;47.684;10.806;2023-02-04T11:24:34;94686.22;;;0.85;nan
16738;BME280;17906;47.684;10.806;2023-02-04T11:27:06;94693.84;;;0.80;nan
16738;BME280;17906;47.684;10.806;2023-02-04T11:29:34;94701.31;;;0.58;nan
16738;BME280;17906;47.684;10.806;2023-02-04T11:32:04;94686.16;;;0.77;nan
16738;BME280;17906;47.684;10.806;2023-02-04T11:34:47;94679.97;;;0.76;nan
16738;BME280;17906;47.684;10.806;2023-02-04T11:37:33;94679.56;;;0.71;nan
16738;BME280;17906;47.684;10.806;2023-02-04T11:40:13;94694.22;;;0.67;nan
16738;BME280;17906;47.684;10.806;2023-02-04T11:42:46;94685.59;;;0.73;nan
16738;BME280;17906;47.684;10.806;2023-02-04T11:45:20;94698.41;;;0.87;nan
16738;BME280;17906;47.684;10.806;2023-02-04T11:47:47;94707.84;;;0.82;nan
16738;BME280;17906;47.684;10.806;2023-02-04T11:50:18;94704.50;;;0.62;nan
16738;BME280;17906;47.684;10.806;2023-02-04T11:52:46;94706.94;;;0.55;nan
16738;BME280;17906;47.684;10.806;2023-02-04T11:55:14;94701.31;;;0.58;nan
16738;BME280;17906;47.684;10.806;2023-02-04T11:57:42;94711.97;;;0.58;nan
16738;BME280;17906;47.684;10.806;2023-02-04T12:00:14;94712.34;;;0.46;nan
16738;BME280;17906;47.684;10.806;2023-02-04T12:02:43;94713.00;;;0.30;nan
16738;BME280;17906;47.684;10.806;2023-02-04T12:05:12;94718.06;;;0.33;nan
16738;BME280;17906;47.684;10.806;2023-02-04T12:07:39;94709.38;;;0.31;nan
16738;BME280;17906;47.684;10.806;2023-02-04T12:10:11;94712.94;;;0.40;nan
16738;BME280;17906;47.684;10.806;2023-02-04T12:12:43;94714.56;;;0.50;nan
16738;BME280;17906;47.684;10.806;2023-02-04T12:15:15;94708.22;;;0.51;nan
16738;BME280;17906;47.684;10.806;2023-02-04T12:17:46;94698.69;;;0.49;nan
16738;BME280;17906;47.684;10.806;2023-02-04T12:20:12;94701.97;;;0.60;nan
16738;BME280;17906;47.684;10.806;2023-02-04T12:22:39;94699.88;;;0.64;nan
16738;BME280;17906;47.684;10.806;2023-02-04T12:25:06;94697.41;;;0.71;nan
16738;BME280;17906;47.684;10.806;2023-02-04T12:27:33;94701.75;;;0.72;nan
16738;BME280;17906;47.684;10.806;2023-02-04T12:30:02;94704.59;;;0.70;nan
16738;BME280;17906;47.684;10.806;2023-02-04T12:32:28;94694.75;;;0.71;nan
16738;BME280;17906;47.684;10.806;2023-02-04T12:34:55;94692.75;;;0.73;nan
16738;BME280;17906;47.684;10.806;2023-02-04T12:37:21;94685.31;;;0.76;nan
16738;BME280;17906;47.684;10.806;2023-02-04T12:39:48;94690.16;;;0.81;nan
16738;BME280;17906;47.684;10.806;2023-02-04T12:42:14;94695.44;;;0.55;nan
16738;BME280;17906;47.684;10.806;2023-02-04T12:44:41;94698.59;;;0.41;nan
16738;BME280;17906;47.684;10.806;2023-02-04T12:47:09;94695.94;;;0.41;nan
16738;BME280;17906;47.684;10.806;2023-02-04T12:49:36;94700.94;;;0.53;nan
16738;BME280;17906;47.684;10.806;2023-02-04T12:52:03;94691.00;;;0.46;nan
16738;BME280;17906;47.684;10.806;2023-02-04T12:54:29;94693.91;;;0.52;nan
16738;BME280;17906;47.684;10.806;2023-02-04T12:56:56;94697.94;;;0.56;nan
16738;BME280;17906;47.684;10.806;2023-02-04T12:59:23;94709.72;;;0.64;nan
16738;BME280;17906;47.684;10.806;2023-02-04T13:01:50;94714.06;;;0.65;nan
16738;BME280;17906;47.684;10.806;2023-02-04T13:04:18;94708.78;;;0.55;nan
16738;BME280;17906;47.684;10.806;2023-02-04T13:06:45;94709.56;;;0.65;nan
16738;BME280;17906;47.684;10.806;2023-02-04T13:09:11;94710.38;;;0.83;nan
16738;BME280;17906;47.684;10.806;2023-02-04T13:11:38;94706.72;;;0.84;nan
16738;BME280;17906;47.684;10.806;2023-02-04T13:14:05;94711.13;;;0.94;nan
16738;BME280;17906;47.684;10.806;2023-02-04T13:16:31;94708.63;;;0.92;nan
16738;BME280;17906;47.684;10.806;2023-02-04T13:18:58;94718.53;;;1.00;nan